Flight Track Log - Related Links

Times and Time Zones

All times are in EDT time to prevent confusion due to time zone crossing. See the JUS196 flight status page for this flight to view local times or setup timezone preferences in your user account.

Time Position Orientation Groundspeed Altitude Reporting Facility
EDT Latitude Longitude Course Direction KTS MPH feet Rate Location/Type
Wed 01:05:20 AM 42.2444 -83.5619 281° West 172 198 1,800  Level Cleveland Center
Wed 01:06:20 AM 42.2550 -83.6356 281° West 199 229 3,700 1,595 Climbing Cleveland Center
Wed 01:06:39 AM 42.2586 -83.6581 282° West 205 236 3,900 3,065 Climbing Cleveland Center
Wed 01:08:39 AM 42.3042 -83.8203 291° West 271 312 10,800 3,400 Climbing Cleveland Center
Wed 01:09:39 AM 42.3306 -83.9144 291° West 266 306 14,100 2,850 Climbing Cleveland Center
Wed 01:10:39 AM 42.3461 -84.0219 281° West 272 313 16,500 2,600 Climbing Cleveland Center
Wed 01:11:39 AM 42.3078 -84.1239 243° Southwest 278 320 19,300 2,344 Climbing Cleveland Center
Wed 01:13:10 AM 42.2469 -84.2758 242° Southwest 317 365 22,400 1,709 Climbing Chicago Center
Wed 01:14:10 AM 42.2061 -84.3964 245° Southwest 350 403 23,600 1,550 Climbing Chicago Center
Wed 01:15:10 AM 42.1656 -84.5283 248° West 377 434 25,500 1,884 Climbing Chicago Center
Wed 01:16:11 AM 42.1278 -84.6636 249° West 384 442 27,400 1,884 Climbing Chicago Center
Wed 01:17:11 AM 42.0889 -84.7969 249° West 383 441 29,300 1,600 Climbing Chicago Center
Wed 01:18:11 AM 42.0503 -84.9311 249° West 385 443 30,600 1,400 Climbing Chicago Center
Wed 01:19:11 AM 42.0089 -85.0656 248° West 388 447 32,100 1,636 Climbing Chicago Center
Wed 01:20:12 AM 41.9617 -85.2144 247° West 384 442 33,900 942 Climbing Chicago Center
Wed 01:21:12 AM 41.9153 -85.3447 244° Southwest 390 449 34,000 50 Climbing Chicago Center
Wed 01:22:12 AM 41.8647 -85.4778 243° Southwest 404 465 34,000  Level Chicago Center
Wed 01:23:12 AM 41.8211 -85.6111 246° West 396 456 34,000  Level Chicago Center
Wed 01:24:13 AM 41.7772 -85.7419 246° West 390 449 34,000  Level Chicago Center
Wed 01:25:13 AM 41.7311 -85.8747 245° Southwest 395 455 34,000  Level Chicago Center
Wed 01:26:13 AM 41.6844 -86.0044 244° Southwest 392 451 34,000  Level Chicago Center
Wed 01:27:13 AM 41.6394 -86.1353 245° Southwest 391 450 34,000  Level Chicago Center
Wed 01:28:14 AM 41.5944 -86.2661 245° Southwest 389 448 34,000  Level Chicago Center
Wed 01:29:14 AM 41.5489 -86.3953 245° Southwest 387 445 34,000  Level Chicago Center
Wed 01:30:14 AM 41.5044 -86.5239 245° Southwest 384 442 34,000  Level Chicago Center
Wed 01:31:14 AM 41.4583 -86.6519 244° Southwest 384 442 34,000  Level Chicago Center
Wed 01:32:14 AM 41.4103 -86.7753 243° Southwest 381 438 34,000  Level Chicago Center
Wed 01:33:14 AM 41.3644 -86.9031 244° Southwest 382 440 34,000  Level Chicago Center
Wed 01:34:15 AM 41.3194 -87.0336 245° Southwest 386 444 34,000  Level Chicago Center
Wed 01:35:15 AM 41.2731 -87.1625 244° Southwest 386 444 34,000  Level Chicago Center
Wed 01:36:15 AM 41.2292 -87.2919 246° West 385 443 34,000  Level Chicago Center
Wed 01:37:15 AM 41.1831 -87.4194 244° Southwest 384 442 34,000  Level Chicago Center
Wed 01:38:15 AM 41.1356 -87.5478 244° Southwest 387 445 34,000  Level Chicago Center
Wed 01:39:16 AM 41.0906 -87.6758 245° Southwest 385 443 34,000  Level Chicago Center
Wed 01:40:16 AM 41.0458 -87.8019 245° Southwest 379 436 34,000  Level Chicago Center
Wed 01:41:16 AM 40.9997 -87.9283 244° Southwest 380 437 34,000  Level Chicago Center
Wed 01:42:16 AM 40.9522 -88.0539 243° Southwest 381 438 34,000  Level Chicago Center
Wed 01:43:16 AM 40.9056 -88.1792 244° Southwest 379 436 34,000  Level Chicago Center
Wed 01:44:16 AM 40.8592 -88.3036 244° Southwest 379 436 34,000  Level Chicago Center
Wed 01:45:16 AM 40.8119 -88.4272 243° Southwest 379 436 34,000  Level Chicago Center
Wed 01:46:17 AM 40.7661 -88.5519 244° Southwest 378 435 34,000  Level Chicago Center
Wed 01:47:17 AM 40.7178 -88.6756 243° Southwest 380 437 34,000  Level Chicago Center
Wed 01:48:17 AM 40.6717 -88.7997 244° Southwest 378 435 34,000  Level Chicago Center
Wed 01:49:17 AM 40.6192 -88.9414 244° Southwest 379 436 34,000  Level Chicago Center
Wed 01:50:17 AM 40.5719 -89.0644 243° Southwest 377 434 34,000  Level Chicago Center
Wed 01:51:17 AM 40.5208 -89.1850 241° Southwest 377 434 34,000  Level Chicago Center
Wed 01:52:17 AM 40.4706 -89.3086 242° Southwest 382 440 34,000  Level Chicago Center
Wed 01:53:18 AM 40.4233 -89.4294 243° Southwest 374 430 34,000  Level Chicago Center
Wed 01:54:18 AM 40.3789 -89.5564 245° Southwest 380 437 34,000  Level Chicago Center
Wed 01:55:18 AM 40.3300 -89.6811 243° Southwest 382 440 34,000  Level Chicago Center
Wed 01:56:18 AM 40.2831 -89.8033 243° Southwest 376 433 34,000  Level Chicago Center
Wed 01:57:18 AM 40.2458 -89.9008 243° Southwest 373 429 34,000  Level Chicago Center
Wed 01:58:18 AM 40.1978 -90.0236 243° Southwest 376 433 34,000  Level Chicago Center
Wed 01:59:18 AM 40.1494 -90.1458 243° Southwest 377 434 34,000  Level Chicago Center
Wed 02:00:18 AM 40.1006 -90.2678 242° Southwest 376 433 34,000  Level Chicago Center
Wed 02:01:08 AM 40.0519 -90.3928 243° Southwest 380 437 34,000  Level Kansas City Center
Wed 02:02:08 AM 40.0044 -90.5172 244° Southwest 381 438 34,000  Level Kansas City Center
Wed 02:03:10 AM 39.9542 -90.6372 241° Southwest 380 437 34,000  Level Kansas City Center
Wed 02:04:11 AM 39.9042 -90.7617 242° Southwest 383 441 34,000  Level Kansas City Center
Wed 02:05:08 AM 39.8533 -90.8858 242° Southwest 386 444 34,000  Level Kansas City Center
Wed 02:06:11 AM 39.8097 -90.9947 242° Southwest 386 444 34,000  Level Kansas City Center
Wed 02:07:11 AM 39.7528 -91.1333 242° Southwest 389 448 34,000  Level Kansas City Center
Wed 02:08:10 AM 39.7019 -91.2572 242° Southwest 390 449 34,000  Level Kansas City Center
Wed 02:09:09 AM 39.6569 -91.3667 242° Southwest 391 450 34,000  Level Kansas City Center
Wed 02:10:11 AM 39.6064 -91.4917 242° Southwest 393 452 34,000  Level Kansas City Center
Wed 02:11:10 AM 39.5544 -91.6128 241° Southwest 390 449 34,000  Level Kansas City Center
Wed 02:12:12 AM 39.5039 -91.7358 242° Southwest 387 445 34,000  Level Kansas City Center
Wed 02:13:12 AM 39.4528 -91.8569 241° Southwest 387 445 34,000  Level Kansas City Center
Wed 02:14:11 AM 39.4031 -91.9781 242° Southwest 385 443 34,000  Level Kansas City Center
Wed 02:15:12 AM 39.3525 -92.0969 241° Southwest 381 438 34,000  Level Kansas City Center
Wed 02:16:13 AM 39.3011 -92.2181 241° Southwest 383 441 34,000  Level Kansas City Center
Wed 02:17:13 AM 39.2428 -92.3536 241° Southwest 385 443 34,000  Level Kansas City Center
Wed 02:18:12 AM 39.1903 -92.4753 241° Southwest 386 444 34,000  Level Kansas City Center
Wed 02:19:13 AM 39.1381 -92.5964 241° Southwest 387 445 34,000  Level Kansas City Center
Wed 02:20:13 AM 39.0822 -92.7253 241° Southwest 388 447 34,000  Level Kansas City Center
Wed 02:21:13 AM 39.0306 -92.8481 242° Southwest 391 450 34,000  Level Kansas City Center
Wed 02:22:13 AM 38.9814 -92.9636 241° Southwest 389 448 34,000  Level Kansas City Center
Wed 02:23:13 AM 38.9289 -93.0833 241° Southwest 386 444 34,000  Level Kansas City Center
Wed 02:24:12 AM 38.8747 -93.2058 240° Southwest 390 449 34,000  Level Kansas City Center
Wed 02:25:12 AM 38.8217 -93.3269 241° Southwest 390 449 34,000  Level Kansas City Center
Wed 02:26:12 AM 38.7697 -93.4469 241° Southwest 387 445 34,000  Level Kansas City Center
Wed 02:27:13 AM 38.7158 -93.5650 240° Southwest 386 444 34,000  Level Kansas City Center
Wed 02:28:13 AM 38.6622 -93.6847 240° Southwest 386 444 34,000  Level Kansas City Center
Wed 02:29:13 AM 38.6058 -93.8117 240° Southwest 390 449 34,000  Level Kansas City Center
Wed 02:30:13 AM 38.5536 -93.9258 240° Southwest 389 448 34,000  Level Kansas City Center
Wed 02:31:13 AM 38.5014 -94.0400 240° Southwest 388 447 34,000  Level Kansas City Center
Wed 02:32:15 AM 38.4500 -94.1544 240° Southwest 389 448 34,000  Level Kansas City Center
Wed 02:33:15 AM 38.3903 -94.2864 240° Southwest 386 444 34,000  Level Kansas City Center
Wed 02:34:14 AM 38.3372 -94.4022 240° Southwest 391 450 34,000  Level Kansas City Center
Wed 02:35:15 AM 38.2858 -94.5150 240° Southwest 388 447 34,000  Level Kansas City Center
Wed 02:36:14 AM 38.2347 -94.6281 240° Southwest 385 443 34,000  Level Kansas City Center
Wed 02:37:16 AM 38.1742 -94.7606 240° Southwest 386 444 34,000  Level Kansas City Center
Wed 02:38:14 AM 38.1217 -94.8742 240° Southwest 388 447 34,000  Level Kansas City Center
Wed 02:39:15 AM 38.0694 -94.9872 240° Southwest 387 445 34,000  Level Kansas City Center
Wed 02:40:15 AM 38.0081 -95.1181 239° Southwest 386 444 34,000  Level Kansas City Center
Wed 02:41:17 AM 37.9550 -95.2331 240° Southwest 391 450 34,000  Level Kansas City Center
Wed 02:42:15 AM 37.9064 -95.3403 240° Southwest 387 445 34,000  Level Kansas City Center
Wed 02:43:18 AM 37.8511 -95.4547 239° Southwest 383 441 34,000  Level Kansas City Center
Wed 02:44:16 AM 37.7972 -95.5728 240° Southwest 386 444 34,000  Level Kansas City Center
Wed 02:45:16 AM 37.7422 -95.6875 239° Southwest 384 442 34,000  Level Kansas City Center
Wed 02:46:19 AM 37.6867 -95.8025 239° Southwest 384 442 34,000  Level Kansas City Center
Wed 02:47:19 AM 37.6308 -95.9211 239° Southwest 390 449 34,000  Level Kansas City Center
Wed 02:48:19 AM 37.5753 -96.0358 239° Southwest 385 443 34,000  Level Kansas City Center
Wed 02:49:20 AM 37.5183 -96.1503 238° Southwest 386 444 34,000  Level Kansas City Center
Wed 02:50:20 AM 37.4633 -96.2644 239° Southwest 384 442 34,000  Level Kansas City Center
Wed 02:51:20 AM 37.4075 -96.3781 238° Southwest 382 440 34,000  Level Kansas City Center
Wed 02:52:19 AM 37.3483 -96.5028 239° Southwest 383 441 34,000  Level Kansas City Center
Wed 02:53:18 AM 37.2925 -96.6167 238° Southwest 383 441 34,000  Level Kansas City Center
Wed 02:54:18 AM 37.2369 -96.7300 238° Southwest 382 440 34,000  Level Kansas City Center
Wed 02:55:21 AM 37.1811 -96.8447 239° Southwest 382 440 34,000  Level Kansas City Center
Wed 02:56:19 AM 37.1244 -96.9594 238° Southwest 385 443 34,000  Level Kansas City Center
Wed 02:57:19 AM 37.0678 -97.0736 238° Southwest 385 443 34,000  Level Kansas City Center
Wed 02:58:22 AM 37.0117 -97.1886 239° Southwest 386 444 34,000  Level Kansas City Center
Wed 02:59:24 AM 36.9544 -97.3042 238° Southwest 388 447 34,000  Level Kansas City Center
Wed 03:00:23 AM 36.8981 -97.4183 238° Southwest 387 445 34,000  Level Kansas City Center
Wed 03:01:22 AM 36.8403 -97.5356 238° Southwest 391 450 34,000  Level Kansas City Center
Wed 03:02:25 AM 36.7708 -97.6419 231° Southwest 394 453 34,000  Level Kansas City Center
Wed 03:03:23 AM 36.7053 -97.7589 235° Southwest 390 449 34,000  Level Kansas City Center
Wed 03:04:25 AM 36.6497 -97.8753 239° Southwest 391 450 34,000  Level Kansas City Center
Wed 03:05:23 AM 36.5967 -97.9953 241° Southwest 393 452 34,000  Level Kansas City Center
Wed 03:06:23 AM 36.5417 -98.1128 240° Southwest 393 452 34,000  Level Kansas City Center
Wed 03:07:24 AM 36.4869 -98.2308 240° Southwest 392 451 34,000  Level Kansas City Center
Wed 03:08:23 AM 36.4281 -98.3447 237° Southwest 392 451 34,000  Level Kansas City Center
Wed 03:09:24 AM 36.3706 -98.4578 238° Southwest 389 448 34,000  Level Kansas City Center
Wed 03:10:25 AM 36.3133 -98.5722 238° Southwest 389 448 34,000  Level Kansas City Center
Wed 03:11:25 AM 36.2544 -98.6847 237° Southwest 388 447 34,000  Level Kansas City Center
Wed 03:12:25 AM 36.1981 -98.7947 238° Southwest 389 448 34,000  Level Kansas City Center
Wed 03:13:26 AM 36.1383 -98.9081 237° Southwest 391 450 34,000  Level Kansas City Center
Wed 03:14:26 AM 36.0794 -99.0200 237° Southwest 390 449 34,000  Level Kansas City Center
Wed 03:15:24 AM 36.0219 -99.1322 238° Southwest 390 449 34,000  Level Kansas City Center
Wed 03:17:01 AM 35.9289 -99.3067 237° Southwest 391 450 34,000  Level Albuquerque Center
Wed 03:18:01 AM 35.8703 -99.4186 237° Southwest 388 447 34,000  Level Albuquerque Center
Wed 03:18:37 AM 35.8356 -99.4858 238° Southwest 386 444 34,000  Level Kansas City Center
Wed 03:19:37 AM 35.7761 -99.5975 237° Southwest 386 444 34,000  Level Kansas City Center
Wed 03:20:02 AM 35.7531 -99.6425 238° Southwest 389 448 34,000  Level Albuquerque Center
Wed 03:21:02 AM 35.6939 -99.7528 237° Southwest 387 445 34,000  Level Albuquerque Center
Wed 03:22:02 AM 35.6336 -99.8647 236° Southwest 389 448 34,000  Level Albuquerque Center
Wed 03:23:03 AM 35.5750 -99.9767 237° Southwest 389 448 34,000  Level Albuquerque Center
Wed 03:24:03 AM 35.5147 -100.0872 236° Southwest 389 448 34,000  Level Albuquerque Center
Wed 03:25:03 AM 35.4553 -100.1986 237° Southwest 389 448 34,000  Level Albuquerque Center
Wed 03:26:03 AM 35.3953 -100.3100 237° Southwest 390 449 34,000  Level Albuquerque Center
Wed 03:27:04 AM 35.3344 -100.4208 236° Southwest 391 450 34,000  Level Albuquerque Center
Wed 03:28:04 AM 35.2736 -100.5339 237° Southwest 395 455 34,000  Level Albuquerque Center
Wed 03:29:04 AM 35.2106 -100.6447 235° Southwest 396 456 34,000  Level Albuquerque Center
Wed 03:30:04 AM 35.1417 -100.7644 235° Southwest 396 456 34,000  Level Albuquerque Center
Wed 03:31:05 AM 35.0775 -100.8733 234° Southwest 394 453 34,000  Level Albuquerque Center
Wed 03:32:05 AM 35.0158 -100.9853 236° Southwest 396 456 34,000  Level Albuquerque Center
Wed 03:33:05 AM 34.9542 -101.0981 236° Southwest 397 457 34,000  Level Albuquerque Center
Wed 03:34:05 AM 34.8933 -101.2106 237° Southwest 396 456 34,000  Level Albuquerque Center
Wed 03:35:06 AM 34.8317 -101.3222 236° Southwest 396 456 34,000  Level Albuquerque Center
Wed 03:36:06 AM 34.7697 -101.4353 236° Southwest 397 457 34,000  Level Albuquerque Center
Wed 03:37:06 AM 34.7069 -101.5467 236° Southwest 398 458 34,000  Level Albuquerque Center
Wed 03:38:06 AM 34.6436 -101.6614 236° Southwest 404 465 34,000  Level Albuquerque Center
Wed 03:39:06 AM 34.5817 -101.7739 236° Southwest 402 463 34,000  Level Albuquerque Center
Wed 03:39:43 AM 34.5431 -101.8406 235° Southwest 402 463 34,000  Level Albuquerque Center
Wed 03:40:43 AM 34.4789 -101.9539 236° Southwest 404 465 34,000  Level Albuquerque Center
Wed 03:41:43 AM 34.4158 -102.0656 236° Southwest 403 464 34,000  Level Albuquerque Center
Wed 03:42:43 AM 34.3517 -102.1775 235° Southwest 403 464 34,000  Level Albuquerque Center
Wed 03:43:43 AM 34.2872 -102.2892 235° Southwest 403 464 34,000  Level Albuquerque Center
Wed 03:44:44 AM 34.2233 -102.3997 235° Southwest 402 463 34,000  Level Albuquerque Center
Wed 03:45:44 AM 34.1694 -102.4942 235° Southwest 403 464 34,000  Level Albuquerque Center
Wed 03:46:44 AM 34.1061 -102.6053 235° Southwest 403 464 34,000  Level Albuquerque Center
Wed 03:47:44 AM 34.0425 -102.7150 235° Southwest 402 463 34,000  Level Albuquerque Center
Wed 03:48:44 AM 33.9794 -102.8233 235° Southwest 398 458 34,000  Level Albuquerque Center
Wed 03:49:45 AM 33.9028 -102.9497 234° Southwest 392 451 34,000  Level Albuquerque Center
Wed 03:50:45 AM 33.8317 -103.0478 229° Southwest 391 450 34,000  Level Albuquerque Center
Wed 03:51:45 AM 33.7606 -103.1489 230° Southwest 393 452 34,000  Level Albuquerque Center
Wed 03:52:45 AM 33.6922 -103.2514 231° Southwest 395 455 34,000  Level Albuquerque Center
Wed 03:53:45 AM 33.6247 -103.3556 232° Southwest 395 455 34,000  Level Albuquerque Center
Wed 03:54:45 AM 33.5594 -103.4556 232° Southwest 391 450 34,000  Level Albuquerque Center
Wed 03:55:46 AM 33.4908 -103.5594 232° Southwest 394 453 34,000  Level Albuquerque Center
Wed 03:56:46 AM 33.4228 -103.6597 231° Southwest 392 451 34,000  Level Albuquerque Center
Wed 03:57:46 AM 33.3528 -103.7653 232° Southwest 387 445 34,000  Level Albuquerque Center
Wed 03:58:46 AM 33.2861 -103.8656 232° Southwest 385 443 34,000  Level Albuquerque Center
Wed 03:59:46 AM 33.2186 -103.9636 231° Southwest 383 441 34,000  Level Albuquerque Center
Wed 04:00:47 AM 33.1508 -104.0608 230° Southwest 382 440 34,000  Level Albuquerque Center
Wed 04:01:47 AM 33.0828 -104.1586 230° Southwest 381 438 34,000 -500 Level Albuquerque Center
Wed 04:02:47 AM 33.0128 -104.2533 229° Southwest 380 437 33,000 -950 Descending Albuquerque Center
Wed 04:03:47 AM 32.9461 -104.3497 231° Southwest 377 434 32,100 -900 Descending Albuquerque Center
Wed 04:04:47 AM 32.8828 -104.4450 232° Southwest 369 425 31,200 -950 Descending Albuquerque Center
Wed 04:05:47 AM 32.8203 -104.5408 232° Southwest 365 420 30,200 -992 Descending Albuquerque Center
Wed 04:06:48 AM 32.7553 -104.6375 231° Southwest 372 428 29,200 -992 Descending Albuquerque Center
Wed 04:07:48 AM 32.6886 -104.7344 231° Southwest 379 436 28,200 -1,300 Descending Albuquerque Center
Wed 04:08:48 AM 32.6197 -104.8292 229° Southwest 378 435 26,600 -2,350 Descending Albuquerque Center
Wed 04:09:48 AM 32.5542 -104.9186 229° Southwest 363 418 23,500 -2,950 Descending Albuquerque Center
Wed 04:10:48 AM 32.5053 -104.9981 234° Southwest 352 405 20,700 -2,950 Descending Albuquerque Center
Wed 04:11:48 AM 32.4486 -105.0836 232° Southwest 336 387 17,600 -2,628 Descending Albuquerque Center
Wed 04:12:49 AM 32.4019 -105.1594 234° Southwest 296 341 15,400 -1,983 Descending Albuquerque Center
Wed 04:13:49 AM 32.3536 -105.2303 231° Southwest 280 322 13,600 -1,550 Descending Albuquerque Center
Wed 04:14:49 AM 32.2914 -105.3017 224° Southwest 297 342 12,300 -850 Descending Albuquerque Center
Wed 04:15:49 AM 32.2314 -105.3767 227° Southwest 312 359 11,900 -200 Descending Albuquerque Center
Wed 04:16:49 AM 32.1778 -105.4489 229° Southwest 299 344 11,900  Level Albuquerque Center
Wed 04:17:49 AM 32.1253 -105.5236 230° Southwest 297 342 11,900  Level Albuquerque Center
Wed 04:18:49 AM 32.0628 -105.6133 231° Southwest 297 342 11,900 -250 Level Albuquerque Center
Wed 04:19:49 AM 32.0106 -105.6875 230° Southwest 295 339 11,400 -843 Descending Albuquerque Center
Wed 04:20:50 AM 31.9667 -105.7689 238° Southwest 297 342 10,200 -744 Descending Albuquerque Center
Wed 04:21:50 AM 31.9411 -105.8539 251° West 279 321 9,900 -150 Descending Albuquerque Center
Wed 04:22:50 AM 31.9192 -105.9344 252° West 263 303 9,900  Level Albuquerque Center
Wed 04:23:50 AM 31.8939 -106.0189 251° West 272 313 9,900 -400 Level Albuquerque Center
Wed 04:24:50 AM 31.8706 -106.0967 251° West 253 291 9,100 -900 Descending Albuquerque Center
Wed 04:25:50 AM 31.8525 -106.1603 252° West 212 244 8,100 -1,100 Descending Albuquerque Center
Wed 04:26:50 AM 31.8364 -106.2075 248° West 161 185 6,900 -1,280 Descending Albuquerque Center
Wed 04:27:05 AM 31.8325 -106.2178 246° West 143 165 6,500 -1,200 Descending Albuquerque Center
Wed 04:27:50 AM 31.8206 -106.2508 247° West 146 168 5,700 -787 Descending Albuquerque Center
Wed 04:28:06 AM 31.8192 -106.2611 261° West 135 155 5,700 -393 Level Albuquerque Center
Wed 04:28:51 AM 31.8122 -106.2911 255° West 130 150 5,300 -500 Descending Albuquerque Center
Wed 04:29:06 AM 31.8094 -106.3011 252° West 124 143 5,200 -600 Descending Albuquerque Center
Wed 04:29:51 AM 31.7989 -106.3264 244° Southwest 117 135 4,700 -689 Descending Albuquerque Center
Wed 04:30:07 AM 31.7986 -106.3361 268° West 111 128 4,500 -700 Descending Albuquerque Center
Wed 04:30:51 AM 31.8014 -106.3628 277° West 111 128 4,000 -682 Descending Albuquerque Center
Wed 04:32:00 AM 31.8000 -106.3667 270° West  Level FlightAware Approximate
Wed 04:39:00 AM 31.8072 -106.3764 270° West  Level Estimated
Wed 04:40:00 AM 31.8072 -106.3764 270° West  Level Estimated
Wed 04:41:00 AM 31.8072 -106.3764 270° West  Level Estimated

Login

Don't have an account? Register now (free) for customized features, flight alerts, and more!